• Join FlightAware (Why Join?)
  • Login
  • US Flag 
09:40PM EDT


 

Airport Tracker/Info


-or-


 

Live Flight TrackerFlight Track Log ✈ N789EX ✈ 11-May-2014 ✈ KMWH - KBFI

Flight Track Log - Related Links

Times and Time Zones

All times are in EDT time to prevent confusion due to time zone crossing. See the N789EX flight status page for this flight to view local times or setup timezone preferences in your user account.

Time Position Orientation Groundspeed Altitude Reporting Facility
EDT Latitude Longitude Course Direction KTS MPH feet Rate Location/Type
06:06PM 47.4642 -119.9790 296° West 425 489 17,800  Level FlightAware ADS-B
06:07PM 47.4133 -119.9137 295° West  Level FlightAware Approximate
06:07PM 47.4907 -120.0580 296° West 437 503 18,900  Level FlightAware ADS-B
06:07PM 47.5175 -120.1400 296° West 439 505 19,900 1,020 Climbing FlightAware ADS-B
06:08PM 47.5477 -120.2320 296° West 439 505 20,000 60 Climbing FlightAware ADS-B
06:09PM 47.5771 -120.3230 295° West 438 504 20,000 -180 Level FlightAware ADS-B
06:09PM 47.6041 -120.4181 290° West 438 504 19,800 -540 Descending FlightAware ADS-B
06:09PM 47.6063 -120.4270 295° West 439 505 19,700 -1,620 Descending FlightAware ADS-B
06:10PM 47.6257 -120.5130 288° West 435 501 18,900 -1,680 Descending FlightAware ADS-B
06:10PM 47.6293 -120.5285 289° West 435 501 18,700 -1,740 Descending FlightAware ADS-B
06:10PM 47.6463 -120.6040 288° West 433 498 18,000 -1,500 Descending FlightAware ADS-B
06:10PM 47.6580 -120.6566 288° West 431 496 17,600 -1,440 Descending FlightAware ADS-B
06:11PM 47.6653 -120.6900 288° West 429 494 17,300 -1,620 Descending FlightAware ADS-B
06:11PM 47.6778 -120.7452 288° West 427 491 16,700 -1,560 Descending FlightAware ADS-B
06:11PM 47.6843 -120.7750 288° West 426 490 16,500 -1,380 Descending FlightAware ADS-B
06:12PM 47.6966 -120.8298 288° West 423 487 16,000 -1,440 Descending FlightAware ADS-B
06:12PM 47.7028 -120.8580 288° West 422 486 15,800 -780 Descending FlightAware ADS-B
06:12PM 47.7143 -120.9102 288° West 401 461 15,600 -420 Descending FlightAware ADS-B
06:12PM 47.7204 -120.9380 288° West 404 465 15,600 180 Level FlightAware ADS-B
06:13PM 47.7308 -120.9846 288° West 409 471 15,700  Climbing FlightAware ADS-B
06:13PM 47.7384 -121.0190 288° West 410 472 15,600 -180 Descending FlightAware ADS-B
06:13PM 47.7530 -121.0859 288° West 407 468 15,600  Level FlightAware ADS-B
06:13PM 47.7562 -121.1000 288° West 406 467 15,600 -1,920 Level FlightAware ADS-B
06:14PM 47.7739 -121.1810 288° West 400 460 14,500 -2,220 Descending FlightAware ADS-B
06:14PM 47.7908 -121.2580 288° West 386 444 13,400 -2,160 Descending FlightAware ADS-B
06:14PM 47.7889 -121.2499 288° West 385 443 13,400 -1,200 Level FlightAware ADS-B
06:15PM 47.8068 -121.3320 288° West 364 419 12,800 -1,260 Descending FlightAware ADS-B
06:15PM 47.8095 -121.3450 288° West 361 415 12,700 -960 Descending FlightAware ADS-B
06:15PM 47.8194 -121.3910 288° West 348 400 12,400 -900 Descending FlightAware ADS-B
06:15PM 47.8291 -121.4357 287° West 338 389 12,100 -1,020 Descending FlightAware ADS-B
06:16PM 47.8337 -121.4580 288° West 328 377 11,900 -1,080 Descending FlightAware ADS-B
06:16PM 47.8474 -121.5210 288° West 310 357 11,400 -840 Descending FlightAware ADS-B
06:16PM 47.8530 -121.5471 288° West 303 349 11,300 -720 Descending FlightAware ADS-B
06:17PM 47.8578 -121.5690 287° West 297 342 11,100 -780 Descending FlightAware ADS-B
06:17PM 47.8636 -121.5967 288° West 287 330 10,900 -1,020 Descending FlightAware ADS-B
06:17PM 47.8701 -121.6280 287° West 286 329 10,600 -1,440 Descending FlightAware ADS-B
06:17PM 47.8762 -121.6570 284° West 286 329 10,300 -1,440 Descending FlightAware ADS-B
06:18PM 47.8778 -121.6750 273° West 287 330 10,000 -2,220 Descending FlightAware ADS-B
06:18PM 47.8760 -121.6561 266° West 286 329 9,900 -1,500 Descending FlightAware ADS-B (CYVR)
06:18PM 47.8775 -121.6830 266° West 286 329 9,900 -1,380 Level FlightAware ADS-B
06:18PM 47.8752 -121.6960 252° West 285 328 9,700 -1,500 Descending FlightAware ADS-B
06:18PM 47.8726 -121.7040 242° Southwest 283 326 9,600 -1,380 Descending FlightAware ADS-B
06:18PM 47.8699 -121.7100 233° Southwest 282 325 9,500 -1,740 Descending FlightAware ADS-B
06:18PM 47.8672 -121.7150 228° Southwest 281 323 9,400 -1,200 Descending FlightAware ADS-B
06:18PM 47.8663 -121.7162 226° Southwest 279 321 9,400  Level FlightAware ADS-B
06:18PM 47.8645 -121.7190 225° Southwest 279 321 9,400 -1,200 Level FlightAware ADS-B
06:18PM 47.8608 -121.7237 221° Southwest 277 319 9,300 -1,500 Descending FlightAware ADS-B
06:18PM 47.8520 -121.7350 219° Southwest 276 318 9,100 -1,260 Descending FlightAware ADS-B
06:18PM 47.8369 -121.7530 219° Southwest 274 315 8,800 -1,320 Descending FlightAware ADS-B
06:19PM 47.8214 -121.7718 219° Southwest 272 313 8,400 -1,380 Descending FlightAware ADS-B
06:19PM 47.8196 -121.7740 219° Southwest 273 314 8,400 -1,440 Level FlightAware ADS-B
06:19PM 47.8044 -121.7920 219° Southwest 270 311 8,000 -1,380 Descending FlightAware ADS-B
06:19PM 47.8026 -121.7941 219° Southwest 270 311 8,000 -1,140 Level FlightAware ADS-B
06:19PM 47.7890 -121.8100 219° Southwest 269 310 7,700 -1,620 Descending FlightAware ADS-B
06:19PM 47.7871 -121.8126 219° Southwest 268 308 7,600 -1,140 Descending FlightAware ADS-B
06:19PM 47.7736 -121.8290 219° Southwest 266 306 7,400 -1,080 Descending FlightAware ADS-B
06:20PM 47.7588 -121.8460 218° Southwest 263 303 7,100 -1,440 Descending FlightAware ADS-B
06:20PM 47.7442 -121.8630 218° Southwest 263 303 6,700 -1,200 Descending FlightAware ADS-B
06:20PM 47.7390 -121.8688 218° Southwest 262 302 6,700  Level FlightAware ADS-B
06:20PM 47.7351 -121.8730 217° Southwest 264 304 6,700  Level FlightAware ADS-B
06:20PM 47.7315 -121.8770 215° Southwest 266 306 6,700  Level FlightAware ADS-B
06:20PM 47.7292 -121.8790 213° Southwest 268 308 6,700  Level FlightAware ADS-B
06:20PM 47.7267 -121.8810 212° Southwest 268 308 6,700 -420 Level FlightAware ADS-B
06:20PM 47.7135 -121.8920 208° Southwest 266 306 6,600 -480 Descending FlightAware ADS-B
06:21PM 47.7139 -121.8920 208° Southwest 266 306 6,600 -780 Level FlightAware ADS-B
06:21PM 47.6971 -121.9050 208° Southwest 264 304 6,400 -1,080 Descending FlightAware ADS-B
06:21PM 47.6881 -121.9124 208° Southwest 264 304 6,200 -1,200 Descending FlightAware ADS-B (KPAE)
06:21PM 47.6803 -121.9190 208° Southwest 265 305 6,100 -900 Descending FlightAware ADS-B
06:21PM 47.6660 -121.9300 208° Southwest 263 303 5,900 -900 Descending FlightAware ADS-B
06:21PM 47.6751 -121.9226 208° Southwest 264 304 5,900 -720 Level FlightAware ADS-B (KPAE)
06:21PM 47.6571 -121.9370 209° Southwest 261 300 5,800 -1,020 Descending FlightAware ADS-B
06:22PM 47.6464 -121.9458 209° Southwest 260 299 5,600 -1,200 Descending FlightAware ADS-B (KPAE)
06:22PM 47.6412 -121.9500 209° Southwest 260 299 5,500 -1,200 Descending FlightAware ADS-B
06:22PM 47.6310 -121.9580 207° Southwest 258 297 5,300 -1,440 Descending FlightAware ADS-B
06:22PM 47.6280 -121.9602 206° Southwest 256 295 5,200 -1,020 Descending FlightAware ADS-B (KPAE)
06:22PM 47.6180 -121.9670 206° Southwest 255 293 5,100 -1,020 Descending FlightAware ADS-B
06:22PM 47.6022 -121.9790 207° Southwest 254 292 4,800 -1,200 Descending FlightAware ADS-B
06:22PM 47.5863 -121.9910 207° Southwest 254 292 4,500 -1,320 Descending FlightAware ADS-B
06:23PM 47.5863 -121.9911 207° Southwest 253 291 4,400 -1,500 Descending FlightAware ADS-B (KPAE)
06:23PM 47.5697 -122.0040 208° Southwest 254 292 4,100 -1,440 Descending FlightAware ADS-B
06:23PM 47.5606 -122.0115 208° Southwest 255 293 3,900 -840 Descending FlightAware ADS-B (KPAE)
06:23PM 47.5537 -122.0170 208° Southwest 257 296 3,900  Level FlightAware ADS-B
06:23PM 47.5375 -122.0300 208° Southwest 256 295 3,900 -240 Level FlightAware ADS-B
06:24PM 47.5217 -122.0420 208° Southwest 253 291 3,800 -360 Descending FlightAware ADS-B
06:24PM 47.5206 -122.0428 208° Southwest 251 289 3,800 360 Level FlightAware ADS-B (KPAE)
06:24PM 47.5055 -122.0540 207° Southwest 253 291 3,900 300 Climbing FlightAware ADS-B
06:24PM 47.5013 -122.0572 207° Southwest 254 292 3,900 -480 Level FlightAware ADS-B (KPAE)
06:24PM 47.4927 -122.0640 207° Southwest 254 292 3,800 -300 Descending FlightAware ADS-B
06:24PM 47.4767 -122.0758 207° Southwest 258 297 3,800  Level FlightAware ADS-B (KPAE)
06:24PM 47.4686 -122.0820 208° Southwest 259 298 3,800  Level FlightAware ADS-B
06:24PM 47.4653 -122.0850 212° Southwest 260 299 3,800  Level FlightAware ADS-B
06:24PM 47.4615 -122.0890 218° Southwest 259 298 3,800  Level FlightAware ADS-B
06:25PM 47.4588 -122.0930 222° Southwest 258 297 3,800  Level FlightAware ADS-B
06:25PM 47.4756 -122.0766 222° Southwest 258 297 3,800  Level FlightAware ADS-B (KPAE)
06:25PM 47.4554 -122.0980 229° Southwest 257 296 3,800 -900 Level FlightAware ADS-B
06:25PM 47.4520 -122.1040 237° Southwest 255 293 3,700 -780 Descending FlightAware ADS-B
06:25PM 47.4506 -122.1100 243° Southwest 254 292 3,700 -900 Level FlightAware ADS-B
06:25PM 47.4488 -122.1160 247° West 253 291 3,600 -2,040 Descending FlightAware ADS-B
06:25PM 47.4440 -122.1340 248° West 257 296 3,200 -2,040 Descending FlightAware ADS-B
06:25PM 47.4369 -122.1590 247° West 260 299 2,700 -2,040 Descending FlightAware ADS-B
06:25PM 47.4324 -122.1740 247° West 252 290 2,400 -1,860 Descending FlightAware ADS-B
06:25PM 47.4309 -122.1790 249° West 249 287 2,300 -1,740 Descending FlightAware ADS-B
06:26PM 47.4299 -122.1850 255° West 244 281 2,200 -900 Descending FlightAware ADS-B
06:26PM 47.4292 -122.1900 260° West 239 275 2,200 -900 Level FlightAware ADS-B
06:26PM 47.4285 -122.1950 265° West 235 270 2,100 -1,740 Descending FlightAware ADS-B
06:26PM 47.4277 -122.2010 273° West 230 265 2,000 -1,500 Descending FlightAware ADS-B
06:26PM 47.4295 -122.2070 282° West 226 260 1,900 -1,740 Descending FlightAware ADS-B
06:26PM 47.4301 -122.2120 289° West 224 258 1,800 -2,580 Descending FlightAware ADS-B
06:26PM 47.4327 -122.2180 298° West 221 254 1,600 -2,280 Descending FlightAware ADS-B
06:26PM 47.4346 -122.2220 307° West 218 251 1,500 -900 Descending FlightAware ADS-B
06:26PM 47.4364 -122.2260 314° West 216 249 1,500 -900 Level FlightAware ADS-B
06:26PM 47.4387 -122.2310 323° Northwest 212 244 1,400 -1,740 Descending FlightAware ADS-B
06:26PM 47.4429 -122.2320 330° Northwest 209 241 1,300 -900 Descending FlightAware ADS-B
06:26PM 47.4456 -122.2340 331° Northwest 207 238 1,300 -1,200 Level FlightAware ADS-B
06:26PM 47.4505 -122.2380 334° Northwest 200 230 1,100 -1,680 Descending FlightAware ADS-B
06:26PM 47.4553 -122.2410 335° Northwest 191 220 1,000 -720 Descending FlightAware ADS-B
06:27PM 47.4638 -122.2470 334° Northwest 169 194 900 -360 Descending FlightAware ADS-B
06:27PM 47.4671 -122.2500 332° Northwest 163 188 900 -600 Level FlightAware ADS-B
06:27PM 47.4776 -122.2580 330° Northwest 155 178 700 -420 Descending FlightAware ADS-B
06:28PM 47.4992 -122.2772 330° Northwest 151 174 500 -360 Descending Seattle Center
06:29PM 47.5311 -122.3025 332° Northwest 145 167 100 -420 Descending Seattle Center
06:31PM 47.5300 -122.3020 247° West  Level Estimated